createdAt,value
2022-09-02T00:01:01.020Z,101835.16
2022-09-02T00:06:05.794Z,101831.53
2022-09-02T00:11:13.218Z,101826.53
2022-09-02T00:16:17.386Z,101818.72
2022-09-02T00:21:22.663Z,101815.38
2022-09-02T00:26:26.003Z,101817.09
2022-09-02T00:31:30.051Z,101815.38
2022-09-02T00:36:35.377Z,101809.75
2022-09-02T00:41:40.884Z,101823.28
2022-09-02T00:46:43.993Z,101827.75
2022-09-02T00:51:52.429Z,101823.25
2022-09-02T00:56:56.320Z,101828.06
2022-09-02T01:01:59.304Z,101827.72
2022-09-02T01:07:04.540Z,101823.69
2022-09-02T01:12:07.987Z,101831.00
2022-09-02T01:17:11.544Z,101816.44
2022-09-02T01:22:20.928Z,101814.63
2022-09-02T01:27:24.911Z,101805.03
2022-09-02T01:32:29.692Z,101810.47
2022-09-02T01:37:34.184Z,101812.88
2022-09-02T01:42:37.500Z,101811.19
2022-09-02T01:47:40.467Z,101802.78
2022-09-02T01:52:45.115Z,101800.09
2022-09-02T01:57:48.354Z,101793.31
2022-09-02T02:02:51.585Z,101798.53
2022-09-02T02:07:58.886Z,101790.50
2022-09-02T02:13:02.808Z,101792.22
2022-09-02T02:18:09.597Z,101787.69
2022-09-02T02:23:14.224Z,101786.69
2022-09-02T02:28:17.279Z,101791.22
2022-09-02T02:33:21.029Z,101786.25
2022-09-02T02:38:30.830Z,101783.00
2022-09-02T02:43:34.239Z,101787.31
2022-09-02T02:48:38.131Z,101775.88
2022-09-02T02:53:43.321Z,101777.41
2022-09-02T02:58:47.281Z,101765.88
2022-09-02T03:03:52.135Z,101772.44
2022-09-02T03:08:59.722Z,101773.03
2022-09-02T03:14:04.030Z,101767.25
2022-09-02T03:19:08.922Z,101772.69
2022-09-02T03:24:13.828Z,101772.34
2022-09-02T03:29:16.852Z,101767.72
2022-09-02T03:34:20.661Z,101763.97
2022-09-02T03:39:25.717Z,101769.09
2022-09-02T03:44:28.790Z,101765.69
2022-09-02T03:49:32.687Z,101762.75
2022-09-02T03:54:38.081Z,101761.63
2022-09-02T03:59:41.166Z,101756.88
2022-09-02T04:04:44.254Z,101753.38
2022-09-02T04:09:48.623Z,101751.22
2022-09-02T04:14:51.933Z,101748.63
2022-09-02T04:20:00.586Z,101753.50
2022-09-02T04:25:06.544Z,101748.88
2022-09-02T04:30:11.124Z,101754.53
2022-09-02T04:35:16.949Z,101757.13
2022-09-02T04:40:21.700Z,101752.81
2022-09-02T04:45:29.207Z,101757.22
2022-09-02T04:50:34.004Z,101758.47
2022-09-02T04:55:40.455Z,101763.69
2022-09-02T05:00:45.438Z,101764.34
2022-09-02T05:06:00.032Z,101768.75
2022-09-02T05:11:07.690Z,101772.34
2022-09-02T05:16:11.235Z,101770.13
2022-09-02T05:21:19.867Z,101767.41
2022-09-02T05:26:25.935Z,101766.03
2022-09-02T05:31:30.047Z,101765.56
2022-09-02T05:36:33.657Z,101768.03
2022-09-02T05:41:39.154Z,101767.91
2022-09-02T05:46:48.610Z,101767.91
2022-09-02T05:51:55.099Z,101773.84
2022-09-02T05:57:08.721Z,101766.59
2022-09-02T06:02:14.983Z,101765.44
2022-09-02T06:07:20.196Z,101765.56
2022-09-02T06:12:27.740Z,101763.50
2022-09-02T06:17:31.063Z,101759.59
2022-09-02T06:22:34.036Z,101759.41
2022-09-02T06:27:40.066Z,101763.50
2022-09-02T06:32:44.176Z,101755.13
2022-09-02T06:37:53.835Z,101757.38
2022-09-02T06:42:58.891Z,101755.53
2022-09-02T06:48:08.385Z,101751.28
2022-09-02T06:53:15.283Z,101739.56
2022-09-02T06:58:19.959Z,101743.47
2022-09-02T07:03:36.781Z,101746.06
2022-09-02T07:08:41.831Z,101736.00
2022-09-02T07:13:46.504Z,101743.50
2022-09-02T07:18:51.055Z,101740.72
2022-09-02T07:23:54.906Z,101734.88
2022-09-02T07:28:59.482Z,101732.16
2022-09-02T07:34:04.375Z,101728.59
2022-09-02T07:39:09.965Z,101731.56
2022-09-02T07:44:15.111Z,101733.84
2022-09-02T07:49:23.956Z,101737.22
2022-09-02T07:54:28.639Z,101729.41
2022-09-02T07:59:33.998Z,101721.41
2022-09-02T08:04:38.577Z,101734.28
2022-09-02T08:09:43.890Z,101728.78
2022-09-02T08:14:48.242Z,101730.38
2022-09-02T08:19:54.565Z,101732.44
2022-09-02T08:24:57.560Z,101733.31
2022-09-02T08:30:01.921Z,101722.66
2022-09-02T08:35:05.384Z,101720.38
2022-09-02T08:40:14.248Z,101715.63
2022-09-02T08:45:28.822Z,101721.88
2022-09-02T08:50:32.614Z,101714.81
2022-09-02T08:55:44.588Z,101718.13
2022-09-02T09:00:55.789Z,101727.75
2022-09-02T09:06:14.338Z,101708.34
2022-09-02T09:11:20.862Z,101713.22
2022-09-02T09:16:36.302Z,101703.22
2022-09-02T09:21:40.753Z,101698.81
2022-09-02T09:26:45.181Z,101693.94
2022-09-02T09:31:57.356Z,101685.34
2022-09-02T09:37:00.305Z,101679.44
2022-09-02T09:42:09.631Z,101687.91
2022-09-02T09:47:19.425Z,101683.72
2022-09-02T09:52:33.034Z,101679.66
2022-09-02T09:57:37.523Z,101672.47
2022-09-02T10:02:49.124Z,101660.22
2022-09-02T10:08:15.559Z,101654.78
2022-09-02T10:13:29.613Z,101645.94
2022-09-02T10:18:41.247Z,101636.81
2022-09-02T10:23:56.886Z,101625.03
2022-09-02T10:29:32.538Z,101629.59
2022-09-02T10:34:50.261Z,101624.41
2022-09-02T10:40:10.650Z,101615.00
2022-09-02T10:45:18.142Z,101605.22
2022-09-02T10:50:29.518Z,101603.69
2022-09-02T10:55:39.779Z,101596.88
2022-09-02T11:00:49.169Z,101595.63
2022-09-02T11:05:58.014Z,101590.78
2022-09-02T11:11:08.176Z,101591.19
2022-09-02T11:16:16.073Z,101574.50
2022-09-02T11:21:35.404Z,101576.75
2022-09-02T11:26:41.468Z,101574.94
2022-09-02T11:31:49.024Z,101566.16
2022-09-02T11:36:53.760Z,101564.00
2022-09-02T11:42:11.840Z,101559.19
2022-09-02T11:47:36.939Z,101562.09
2022-09-02T11:52:58.056Z,101554.78
2022-09-02T11:58:02.459Z,101553.50
2022-09-02T12:03:40.283Z,101550.50
2022-09-02T12:09:04.008Z,101542.06
2022-09-02T12:14:10.005Z,101529.94
2022-09-02T12:19:41.929Z,101533.69
2022-09-02T12:24:53.130Z,101525.66
2022-09-02T12:29:57.564Z,101519.56
2022-09-02T12:35:10.972Z,101523.69
2022-09-02T12:40:21.999Z,101512.72
2022-09-02T12:45:29.216Z,101514.38
2022-09-02T12:50:36.162Z,101506.06
2022-09-02T12:55:41.985Z,101511.72
2022-09-02T13:00:59.616Z,101501.25
2022-09-02T13:06:06.102Z,101496.03
2022-09-02T13:11:59.219Z,101495.06
2022-09-02T13:17:37.462Z,101487.72
2022-09-02T13:22:58.750Z,101480.69
2022-09-02T13:28:50.334Z,101482.72
2022-09-02T13:34:01.200Z,101474.78
2022-09-02T13:39:16.636Z,101472.34
2022-09-02T13:44:24.791Z,101454.69
2022-09-02T13:49:37.587Z,101449.19
2022-09-02T13:54:44.574Z,101445.31
2022-09-02T13:59:51.440Z,101431.31
2022-09-02T14:04:58.854Z,101428.84
2022-09-02T14:10:04.161Z,101422.75
2022-09-02T14:15:12.187Z,101414.47
2022-09-02T14:20:21.126Z,101414.78
2022-09-02T14:25:27.557Z,101404.38
2022-09-02T14:30:35.617Z,101408.31
2022-09-02T14:35:39.108Z,101409.84
2022-09-02T14:40:44.722Z,101405.97
2022-09-02T14:45:52.014Z,101398.34
2022-09-02T14:51:02.681Z,101394.94
2022-09-02T14:56:07.105Z,101402.97
2022-09-02T15:01:12.623Z,101405.75
2022-09-02T15:06:15.604Z,101403.56
2022-09-02T15:11:21.208Z,101404.16
2022-09-02T15:16:25.623Z,101402.38
2022-09-02T15:21:30.469Z,101396.72
2022-09-02T15:26:39.649Z,101390.50
2022-09-02T15:31:49.216Z,101386.28
2022-09-02T15:36:54.964Z,101384.78
2022-09-02T15:41:58.702Z,101378.47
2022-09-02T15:47:03.666Z,101388.34
2022-09-02T15:52:10.809Z,101380.41
2022-09-02T16:02:41.332Z,101368.97
2022-09-02T16:08:15.824Z,101374.50
2022-09-02T16:13:21.974Z,101375.59
2022-09-02T16:19:05.130Z,101373.44
2022-09-02T16:30:02.040Z,101361.72
2022-09-02T16:35:05.753Z,101347.00
2022-09-02T16:40:21.139Z,101347.84
2022-09-02T16:45:29.456Z,101345.56
2022-09-02T16:50:34.449Z,101340.00
2022-09-02T16:55:57.793Z,101334.41
2022-09-02T17:01:12.395Z,101332.53
2022-09-02T17:06:21.241Z,101337.56
2022-09-02T17:11:32.013Z,101323.41
2022-09-02T17:16:37.138Z,101329.94
2022-09-02T17:21:42.991Z,101332.47
2022-09-02T17:26:50.488Z,101329.53
2022-09-02T17:31:54.320Z,101333.25
2022-09-02T17:36:57.377Z,101335.69
2022-09-02T17:42:01.995Z,101333.44
2022-09-02T17:47:08.250Z,101330.72
2022-09-02T17:52:13.318Z,101335.94
2022-09-02T17:57:43.004Z,101339.56
2022-09-02T18:03:14.014Z,101335.00
2022-09-02T18:08:30.317Z,101339.94
2022-09-02T18:13:44.594Z,101346.94
2022-09-02T18:18:57.354Z,101352.69
2022-09-02T18:24:13.767Z,101353.31
2022-09-02T18:29:33.872Z,101360.78
2022-09-02T18:34:49.027Z,101367.72
2022-09-02T18:40:08.873Z,101356.72
2022-09-02T18:45:22.075Z,101371.78
2022-09-02T18:50:50.841Z,101364.56
2022-09-02T18:55:55.097Z,101360.47
2022-09-02T19:01:06.223Z,101377.81
2022-09-02T19:06:18.983Z,101378.81
2022-09-02T19:11:23.259Z,101375.44
2022-09-02T19:16:29.931Z,101381.81
2022-09-02T19:21:37.279Z,101377.06
2022-09-02T19:26:42.997Z,101379.50
2022-09-02T19:31:49.055Z,101387.81
2022-09-02T19:36:53.593Z,101397.78
2022-09-02T19:41:57.052Z,101385.69
2022-09-02T19:47:49.985Z,101395.09
2022-09-02T19:52:25.483Z,101395.13
2022-09-02T19:57:28.817Z,101409.34
2022-09-02T20:02:33.406Z,101408.94
2022-09-02T20:07:36.488Z,101416.06
2022-09-02T20:12:39.637Z,101415.22
2022-09-02T20:17:47.103Z,101412.56
2022-09-02T20:22:54.674Z,101406.88
2022-09-02T20:28:45.132Z,101417.22
2022-09-02T20:39:51.163Z,101425.47
2022-09-02T20:45:08.024Z,101429.09
2022-09-02T20:50:38.849Z,101429.94
2022-09-02T20:56:00.773Z,101427.38
2022-09-02T21:01:26.722Z,101428.22
2022-09-02T21:06:36.581Z,101423.25
2022-09-02T21:11:47.849Z,101428.28
2022-09-02T21:16:57.668Z,101430.97
2022-09-02T21:22:09.194Z,101432.44
2022-09-02T21:27:24.937Z,101440.16
2022-09-02T21:32:35.190Z,101439.13
2022-09-02T21:37:41.906Z,101432.78
2022-09-02T21:42:59.491Z,101436.81
2022-09-02T21:48:16.012Z,101435.03
2022-09-02T21:53:30.790Z,101428.16
2022-09-02T21:58:55.725Z,101441.75
2022-09-02T22:04:11.073Z,101432.31
2022-09-02T22:09:21.028Z,101426.91
2022-09-02T22:14:31.123Z,101423.34
2022-09-02T22:19:38.923Z,101428.75
2022-09-02T22:24:43.893Z,101432.44
2022-09-02T22:29:51.711Z,101426.69
2022-09-02T22:35:07.331Z,101427.50
2022-09-02T22:40:16.003Z,101419.19
2022-09-02T22:45:40.829Z,101421.53
2022-09-02T22:51:08.223Z,101424.44
2022-09-02T22:56:13.680Z,101417.41
2022-09-02T23:01:21.427Z,101418.94
2022-09-02T23:06:28.100Z,101430.47
2022-09-02T23:11:37.069Z,101432.00
2022-09-02T23:17:01.280Z,101427.38
2022-09-02T23:22:13.056Z,101431.13
2022-09-02T23:27:26.954Z,101424.84
2022-09-02T23:32:53.105Z,101427.53
2022-09-02T23:38:17.820Z,101417.63
2022-09-02T23:43:22.048Z,101423.66
2022-09-02T23:48:41.883Z,101414.31
2022-09-02T23:54:12.017Z,101408.28
2022-09-02T23:59:33.907Z,101403.63
